Time;durP1;ratioP1;P1;durP2;ratioP2;P2;SDS_P1;SDS_P2;PMS_P1;PMS_P2;Temp;Humidity;BMP_temperature;BMP_pressure;BME280_temperature;BME280_humidity;BME280_pressure;Samples;Min_cycle;Max_cycle;Signal;HPM_P1;HPM_P2
2021/08/15 00:01:55;;;;;;;41.35;23.73;;;15.90;99.90;;;;;;5003353;28;20598;-59
2021/08/15 00:04:20;;;;;;;43.58;24.20;;;15.80;99.90;;;;;;5010752;28;20034;-56
2021/08/15 00:06:46;;;;;;;44.75;23.92;;;15.80;99.90;;;;;;5001594;28;20025;-56
2021/08/15 00:09:11;;;;;;;40.70;23.33;;;15.80;99.90;;;;;;4997019;28;20041;-59
2021/08/15 00:11:37;;;;;;;37.65;21.50;;;15.70;99.90;;;;;;5011001;28;20033;-59
2021/08/15 00:14:02;;;;;;;49.90;24.88;;;15.70;99.90;;;;;;5011748;28;20021;-56
2021/08/15 00:16:28;;;;;;;44.83;23.92;;;15.70;99.90;;;;;;5012855;28;20026;-58
2021/08/15 00:18:54;;;;;;;45.22;24.77;;;15.70;99.90;;;;;;5001175;28;20034;-60
2021/08/15 00:21:19;;;;;;;45.75;22.58;;;15.70;99.90;;;;;;4997330;28;20057;-56
2021/08/15 00:23:45;;;;;;;43.35;24.00;;;15.60;99.90;;;;;;4994750;28;20084;-57
2021/08/15 00:26:10;;;;;;;44.78;22.63;;;15.60;99.90;;;;;;4998142;28;20160;-55
2021/08/15 00:28:36;;;;;;;39.00;21.35;;;15.60;99.90;;;;;;4997570;28;20026;-58
2021/08/15 00:31:03;;;;;;;42.70;21.13;;;15.60;99.90;;;;;;5001161;28;20494;-58
2021/08/15 00:33:28;;;;;;;46.58;20.52;;;15.60;99.90;;;;;;5004364;28;20025;-57
2021/08/15 00:35:54;;;;;;;37.80;19.48;;;15.50;99.90;;;;;;4998693;28;20034;-56
2021/08/15 00:38:19;;;;;;;38.85;19.02;;;15.50;99.90;;;;;;4999457;28;20161;-56
2021/08/15 00:40:45;;;;;;;38.22;19.05;;;15.50;99.90;;;;;;4993623;28;20027;-56
2021/08/15 00:43:11;;;;;;;34.25;18.13;;;15.50;99.90;;;;;;4995516;28;20026;-58
2021/08/15 00:45:36;;;;;;;41.70;18.88;;;15.50;99.90;;;;;;5003185;28;20023;-58
2021/08/15 00:48:11;;;;;;;39.80;19.58;;;15.40;99.90;;;;;;5004854;28;20064;-59
2021/08/15 00:50:38;;;;;;;39.60;18.48;;;15.40;99.90;;;;;;4998560;28;20397;-57
2021/08/15 00:53:04;;;;;;;33.88;18.52;;;15.40;99.90;;;;;;4997916;28;20030;-57
2021/08/15 00:55:31;;;;;;;37.42;19.27;;;15.30;99.90;;;;;;5001119;28;20516;-57
2021/08/15 00:57:57;;;;;;;39.15;19.42;;;15.30;99.90;;;;;;5005114;28;20036;-58
2021/08/15 01:00:23;;;;;;;37.58;19.75;;;15.30;99.90;;;;;;5007890;28;20040;-57
2021/08/15 01:02:50;;;;;;;45.67;20.35;;;15.30;99.90;;;;;;5005463;28;20055;-59
2021/08/15 01:05:19;;;;;;;36.22;19.80;;;15.30;99.90;;;;;;5002476;28;20112;-58
2021/08/15 01:07:44;;;;;;;39.85;20.35;;;15.20;99.90;;;;;;4998681;28;20090;-58
2021/08/15 01:10:14;;;;;;;29.30;16.88;;;15.20;99.90;;;;;;4993211;28;20038;-60
2021/08/15 01:12:40;;;;;;;34.10;17.38;;;15.20;99.90;;;;;;4997264;28;20069;-58
2021/08/15 01:15:07;;;;;;;36.92;18.27;;;15.30;99.90;;;;;;5007895;28;20439;-59
2021/08/15 01:17:33;;;;;;;39.40;18.17;;;15.30;99.90;;;;;;5001743;28;20375;-60
2021/08/15 01:19:59;;;;;;;34.90;18.45;;;15.20;99.90;;;;;;4999667;28;20053;-59
2021/08/15 01:22:26;;;;;;;35.30;18.90;;;15.20;99.90;;;;;;5002832;28;20027;-59
2021/08/15 01:24:53;;;;;;;37.80;18.08;;;15.20;99.90;;;;;;5000331;28;20117;-56
2021/08/15 01:27:20;;;;;;;35.17;19.27;;;15.20;99.90;;;;;;4997613;28;20081;-56
2021/08/15 01:29:46;;;;;;;37.65;18.83;;;15.20;99.90;;;;;;4997376;28;20096;-59
2021/08/15 01:32:14;;;;;;;38.05;19.85;;;15.20;99.90;;;;;;4999839;28;20432;-59
2021/08/15 01:34:39;;;;;;;36.15;19.10;;;15.20;99.90;;;;;;4999414;28;20022;-58
2021/08/15 01:37:07;;;;;;;28.20;18.17;;;15.20;99.90;;;;;;5002639;28;20033;-58
2021/08/15 01:39:32;;;;;;;30.73;17.92;;;15.10;99.90;;;;;;5003484;28;20022;-59
2021/08/15 01:41:58;;;;;;;41.88;18.10;;;15.10;99.90;;;;;;4993903;28;20053;-59
2021/08/15 01:44:23;;;;;;;39.67;18.75;;;15.10;99.90;;;;;;5003973;28;20036;-59
2021/08/15 01:46:49;;;;;;;40.47;19.17;;;15.10;99.90;;;;;;5004925;28;20708;-56
2021/08/15 01:49:14;;;;;;;47.55;18.42;;;15.00;99.90;;;;;;5001491;28;20037;-59
2021/08/15 01:51:40;;;;;;;37.53;19.42;;;15.00;99.90;;;;;;5000518;28;20034;-56
2021/08/15 01:54:05;;;;;;;40.08;19.27;;;15.00;99.90;;;;;;4997204;28;20422;-58
2021/08/15 01:56:31;;;;;;;37.00;18.02;;;14.90;99.90;;;;;;4992886;28;20037;-57
2021/08/15 01:58:57;;;;;;;29.27;17.13;;;14.90;99.90;;;;;;5003180;28;20097;-57
2021/08/15 02:01:23;;;;;;;37.45;18.02;;;14.90;99.90;;;;;;5000786;28;20115;-58
2021/08/15 02:03:49;;;;;;;36.20;18.23;;;14.90;99.90;;;;;;4997547;28;20070;-57
2021/08/15 02:06:15;;;;;;;36.72;18.73;;;14.90;99.90;;;;;;5008225;28;20025;-56
2021/08/15 02:08:41;;;;;;;38.15;18.67;;;14.80;99.90;;;;;;5002904;28;20032;-56
2021/08/15 02:11:06;;;;;;;29.88;16.63;;;14.80;99.90;;;;;;4999666;28;20102;-56
2021/08/15 02:13:32;;;;;;;39.50;18.48;;;14.90;99.90;;;;;;4994954;28;20122;-56
2021/08/15 02:15:58;;;;;;;33.53;17.92;;;15.00;99.90;;;;;;5004360;28;20092;-58
2021/08/15 02:18:23;;;;;;;36.25;19.00;;;15.00;99.90;;;;;;4998464;28;20030;-55
2021/08/15 02:20:49;;;;;;;39.00;16.67;;;15.00;99.90;;;;;;4998479;28;20027;-58
2021/08/15 02:23:15;;;;;;;43.20;17.58;;;15.00;99.90;;;;;;5007055;28;20030;-58
2021/08/15 02:25:41;;;;;;;29.58;17.23;;;15.00;99.90;;;;;;5008902;28;20494;-59
2021/08/15 02:28:07;;;;;;;33.78;16.58;;;14.90;99.90;;;;;;4997456;28;20048;-59
2021/08/15 02:30:33;;;;;;;32.45;16.13;;;15.00;99.90;;;;;;5004244;28;20018;-59
2021/08/15 02:32:59;;;;;;;32.55;16.98;;;15.00;99.90;;;;;;5003869;28;20096;-59
2021/08/15 02:35:25;;;;;;;26.50;15.40;;;15.00;99.90;;;;;;4999113;28;20050;-58
2021/08/15 02:37:53;;;;;;;39.13;15.57;;;15.00;99.90;;;;;;4994893;28;20030;-58
2021/08/15 02:40:20;;;;;;;26.90;14.50;;;15.00;99.90;;;;;;5002665;28;20113;-56
2021/08/15 02:42:49;;;;;;;31.27;15.55;;;15.00;99.90;;;;;;4993314;28;20026;-55
2021/08/15 02:45:17;;;;;;;28.52;15.02;;;15.10;99.90;;;;;;5006191;28;20030;-58
2021/08/15 02:47:42;;;;;;;29.33;13.63;;;15.10;99.90;;;;;;5006204;28;20073;-58
2021/08/15 02:50:09;;;;;;;28.55;13.80;;;15.00;99.90;;;;;;4996029;28;20057;-58
2021/08/15 02:52:35;;;;;;;33.35;14.52;;;15.00;99.90;;;;;;4992354;28;20518;-59
2021/08/15 02:55:01;;;;;;;34.63;14.20;;;15.00;99.90;;;;;;4998090;28;20669;-58
2021/08/15 02:57:27;;;;;;;28.25;14.77;;;15.00;99.90;;;;;;4993462;28;20030;-59
2021/08/15 02:59:53;;;;;;;26.17;14.73;;;14.90;99.90;;;;;;4998607;28;20030;-57
2021/08/15 03:02:19;;;;;;;30.08;14.85;;;14.90;99.90;;;;;;4995723;28;20513;-58
2021/08/15 03:04:48;;;;;;;33.38;14.48;;;14.90;99.90;;;;;;5000374;28;20037;-58
2021/08/15 03:07:15;;;;;;;29.73;15.43;;;14.80;99.90;;;;;;4997049;28;20034;-59
2021/08/15 03:09:41;;;;;;;25.65;13.20;;;14.80;99.90;;;;;;4998050;28;20041;-60
2021/08/15 03:12:06;;;;;;;33.65;14.45;;;14.80;99.90;;;;;;5004499;28;20033;-59
2021/08/15 03:14:32;;;;;;;29.95;13.50;;;14.80;99.90;;;;;;5009760;28;20032;-60
2021/08/15 03:16:58;;;;;;;34.63;13.80;;;14.70;99.90;;;;;;4992259;28;20030;-59
2021/08/15 03:19:23;;;;;;;28.02;13.35;;;14.70;99.90;;;;;;4999471;28;20025;-58
2021/08/15 03:21:49;;;;;;;34.95;14.10;;;14.80;99.90;;;;;;5003844;28;20045;-58
2021/08/15 03:24:15;;;;;;;27.08;14.40;;;14.70;99.90;;;;;;5002574;28;20026;-57
2021/08/15 03:26:43;;;;;;;31.75;14.57;;;14.70;99.90;;;;;;4993886;28;20502;-56
2021/08/15 03:29:10;;;;;;;39.42;15.30;;;14.70;99.90;;;;;;4994759;28;20044;-55
2021/08/15 03:31:36;;;;;;;34.28;14.88;;;14.70;99.90;;;;;;5005874;28;20113;-56
2021/08/15 03:34:01;;;;;;;31.90;14.43;;;14.70;99.90;;;;;;4999630;28;20121;-59
2021/08/15 03:36:27;;;;;;;40.78;15.23;;;14.70;99.90;;;;;;4994630;28;20018;-58
2021/08/15 03:38:52;;;;;;;30.33;14.98;;;14.70;99.90;;;;;;5002168;28;20396;-56
2021/08/15 03:41:18;;;;;;;31.15;13.90;;;14.70;99.90;;;;;;4994184;28;20033;-57
2021/08/15 03:43:44;;;;;;;29.08;14.07;;;14.70;99.90;;;;;;4990861;28;20382;-57
2021/08/15 03:46:09;;;;;;;30.00;14.43;;;14.60;99.90;;;;;;4993119;28;20034;-56
2021/08/15 03:48:35;;;;;;;32.72;13.82;;;14.60;99.90;;;;;;4996040;28;20035;-57
2021/08/15 03:51:00;;;;;;;35.58;15.90;;;14.60;99.90;;;;;;5000053;28;20505;-57
2021/08/15 03:53:26;;;;;;;30.80;14.05;;;14.60;99.90;;;;;;4997733;28;20723;-59
2021/08/15 03:55:51;;;;;;;27.08;13.95;;;14.50;99.90;;;;;;4997384;28;20022;-57
2021/08/15 03:58:17;;;;;;;29.38;13.57;;;14.50;99.90;;;;;;4995721;28;20027;-55
2021/08/15 04:00:43;;;;;;;33.28;13.25;;;14.50;99.90;;;;;;4999452;28;20080;-55
2021/08/15 04:03:09;;;;;;;35.05;13.77;;;14.50;99.90;;;;;;4998490;28;20033;-58
2021/08/15 04:05:35;;;;;;;31.23;13.60;;;14.50;99.90;;;;;;4992568;28;20105;-56
2021/08/15 04:08:00;;;;;;;27.15;14.60;;;14.50;99.90;;;;;;4996984;28;20675;-58
2021/08/15 04:10:26;;;;;;;32.15;14.80;;;14.50;99.90;;;;;;4999062;28;20057;-56
2021/08/15 04:12:52;;;;;;;26.80;13.00;;;14.40;99.90;;;;;;4999715;28;20088;-56
2021/08/15 04:15:17;;;;;;;27.70;12.55;;;14.40;99.90;;;;;;4992326;28;20027;-55
2021/08/15 04:17:43;;;;;;;25.45;13.60;;;14.40;99.90;;;;;;4997752;28;20621;-56
2021/08/15 04:20:09;;;;;;;32.63;14.02;;;14.40;99.90;;;;;;4999572;28;20104;-57
2021/08/15 04:22:34;;;;;;;30.13;14.68;;;14.30;99.90;;;;;;5002985;28;20042;-55
2021/08/15 04:25:00;;;;;;;31.42;13.85;;;14.30;99.90;;;;;;4996940;28;20125;-58
2021/08/15 04:27:25;;;;;;;29.40;13.20;;;14.30;99.90;;;;;;4996862;28;20038;-59
2021/08/15 04:29:51;;;;;;;29.38;13.50;;;14.30;99.90;;;;;;4998347;28;20038;-58
2021/08/15 04:32:17;;;;;;;36.10;13.63;;;14.30;99.90;;;;;;5002338;28;20030;-57
2021/08/15 04:34:42;;;;;;;28.23;14.43;;;14.30;99.90;;;;;;5000952;28;20041;-57
2021/08/15 04:37:09;;;;;;;25.58;12.95;;;14.30;99.90;;;;;;5027371;23;20057;-53
2021/08/15 04:39:37;;;;;;;27.98;12.77;;;14.30;99.90;;;;;;5040184;28;20033;-53
2021/08/15 04:42:03;;;;;;;28.65;13.27;;;14.30;99.90;;;;;;5048260;28;20048;-55
2021/08/15 04:44:29;;;;;;;28.20;13.68;;;14.30;99.90;;;;;;5052143;28;20025;-57
2021/08/15 04:46:55;;;;;;;24.38;12.30;;;14.30;99.90;;;;;;5046455;28;20394;-56
2021/08/15 04:49:20;;;;;;;29.25;13.68;;;14.30;99.90;;;;;;5032138;28;20040;-54
2021/08/15 04:51:46;;;;;;;30.85;13.20;;;14.30;99.90;;;;;;5021889;28;20534;-54
2021/08/15 04:54:11;;;;;;;24.65;12.90;;;14.40;99.90;;;;;;5032512;28;20029;-58
2021/08/15 04:56:37;;;;;;;22.88;13.20;;;14.40;99.90;;;;;;5025216;28;20116;-55
2021/08/15 04:59:02;;;;;;;25.48;12.40;;;14.50;99.90;;;;;;5020186;28;20409;-54
2021/08/15 05:01:28;;;;;;;25.38;12.07;;;14.50;99.90;;;;;;5023023;28;20509;-57
2021/08/15 05:03:53;;;;;;;26.25;12.60;;;14.50;99.90;;;;;;5023464;28;20036;-55
2021/08/15 05:06:19;;;;;;;24.67;11.93;;;14.50;99.90;;;;;;5033657;28;20445;-55
2021/08/15 05:08:44;;;;;;;29.63;12.50;;;14.60;99.90;;;;;;5030363;28;20021;-56
2021/08/15 05:11:10;;;;;;;21.20;12.13;;;14.60;99.90;;;;;;5019260;28;20037;-58
2021/08/15 05:13:36;;;;;;;24.10;11.93;;;14.60;99.90;;;;;;5022146;28;20095;-58
2021/08/15 05:16:01;;;;;;;26.77;12.32;;;14.70;99.90;;;;;;5016460;28;20456;-58
2021/08/15 05:18:27;;;;;;;33.33;12.57;;;14.80;99.90;;;;;;5035702;28;20488;-56
2021/08/15 05:20:52;;;;;;;24.15;11.75;;;14.80;99.90;;;;;;5028744;28;20030;-53
2021/08/15 05:23:18;;;;;;;32.35;13.23;;;14.90;99.90;;;;;;5018827;28;20507;-54
2021/08/15 05:25:44;;;;;;;25.05;11.80;;;14.90;99.90;;;;;;5022287;28;20027;-54
2021/08/15 05:28:09;;;;;;;26.55;12.93;;;14.90;99.90;;;;;;5026073;28;20030;-55
2021/08/15 05:30:36;;;;;;;29.67;13.57;;;15.00;99.90;;;;;;5029333;28;20112;-52
2021/08/15 05:33:02;;;;;;;28.52;12.27;;;15.00;99.90;;;;;;5033643;28;20069;-53
2021/08/15 05:35:27;;;;;;;29.95;12.27;;;15.00;99.90;;;;;;5019216;28;20087;-55
2021/08/15 05:37:53;;;;;;;26.50;11.13;;;15.10;99.90;;;;;;5031348;28;20465;-54
2021/08/15 05:40:19;;;;;;;27.42;12.73;;;15.20;99.90;;;;;;5027180;28;20029;-52
2021/08/15 05:42:44;;;;;;;32.95;12.32;;;15.20;99.90;;;;;;5016955;28;20370;-53
2021/08/15 05:45:10;;;;;;;26.05;12.35;;;15.30;99.90;;;;;;5013167;28;20032;-56
2021/08/15 05:47:36;;;;;;;26.15;11.82;;;15.30;99.90;;;;;;5032532;28;20036;-58
2021/08/15 05:50:02;;;;;;;22.10;10.88;;;15.40;99.90;;;;;;5030753;28;20037;-55
2021/08/15 05:52:28;;;;;;;25.70;12.73;;;15.50;99.90;;;;;;5019855;28;20041;-53
2021/08/15 05:54:54;;;;;;;31.58;12.20;;;15.50;99.90;;;;;;5027827;28;20502;-52
2021/08/15 05:57:19;;;;;;;31.38;13.52;;;15.60;99.90;;;;;;5022786;28;20027;-52
2021/08/15 05:59:45;;;;;;;23.42;10.75;;;15.70;99.90;;;;;;5021832;28;20163;-54
2021/08/15 06:02:10;;;;;;;26.35;13.10;;;15.80;99.90;;;;;;5021650;28;20045;-52
2021/08/15 06:04:36;;;;;;;28.58;11.57;;;15.80;99.90;;;;;;5022000;28;20582;-53
2021/08/15 06:07:02;;;;;;;32.85;12.13;;;15.90;99.90;;;;;;5021253;28;20037;-53
2021/08/15 06:09:28;;;;;;;25.48;11.40;;;15.90;99.90;;;;;;5023450;28;20109;-54
2021/08/15 06:11:53;;;;;;;21.58;11.57;;;16.00;99.90;;;;;;5021387;28;20037;-56
2021/08/15 06:14:19;;;;;;;29.38;11.50;;;16.00;99.90;;;;;;5030370;28;20028;-53
2021/08/15 06:16:45;;;;;;;21.80;10.50;;;16.10;99.90;;;;;;5025199;28;20030;-54
2021/08/15 06:19:11;;;;;;;23.55;11.27;;;16.10;99.90;;;;;;5019052;28;20029;-55
2021/08/15 06:21:36;;;;;;;24.60;11.35;;;16.20;99.90;;;;;;5021595;28;20072;-54
2021/08/15 06:24:03;;;;;;;26.98;11.05;;;16.20;99.90;;;;;;5027067;28;20053;-58
2021/08/15 06:26:29;;;;;;;28.52;12.63;;;16.30;99.90;;;;;;5019142;28;20041;-54
2021/08/15 06:28:54;;;;;;;25.92;11.35;;;16.40;99.90;;;;;;5026307;28;20033;-58
2021/08/15 06:31:21;;;;;;;22.88;11.48;;;16.50;99.90;;;;;;5024083;28;20033;-60
2021/08/15 06:33:47;;;;;;;27.85;11.10;;;16.60;99.90;;;;;;5026437;28;20028;-55
2021/08/15 06:36:13;;;;;;;21.95;10.27;;;16.70;99.90;;;;;;5022913;28;20443;-54
2021/08/15 06:38:38;;;;;;;33.78;10.80;;;16.80;99.90;;;;;;5018402;28;20042;-57
2021/08/15 06:41:04;;;;;;;20.42;10.55;;;16.90;99.90;;;;;;5027100;28;20021;-59
2021/08/15 06:43:29;;;;;;;20.13;9.40;;;17.00;99.90;;;;;;5025013;28;20028;-56
2021/08/15 06:45:55;;;;;;;27.55;10.98;;;17.10;99.90;;;;;;5015390;28;20029;-58
2021/08/15 06:48:22;;;;;;;22.42;11.60;;;17.20;99.90;;;;;;5018987;28;20112;-59
2021/08/15 06:50:49;;;;;;;23.13;10.73;;;17.30;99.90;;;;;;5032690;28;20034;-57
2021/08/15 06:53:14;;;;;;;27.48;10.73;;;17.30;99.90;;;;;;5020475;28;20059;-55
2021/08/15 06:55:41;;;;;;;29.58;10.07;;;17.40;99.90;;;;;;5018607;28;20081;-56
2021/08/15 06:58:06;;;;;;;24.25;11.98;;;17.50;99.90;;;;;;5037177;28;20051;-57
2021/08/15 07:00:32;;;;;;;30.20;10.77;;;17.60;99.90;;;;;;5034624;28;20017;-57
2021/08/15 07:02:57;;;;;;;21.30;10.52;;;17.70;99.90;;;;;;5021972;28;20563;-56
2021/08/15 07:05:23;;;;;;;22.40;10.23;;;17.80;99.90;;;;;;5021641;28;20485;-55
2021/08/15 07:07:49;;;;;;;25.33;10.25;;;17.90;99.90;;;;;;5026869;28;20492;-59
2021/08/15 07:10:14;;;;;;;24.38;11.20;;;18.00;99.90;;;;;;5025330;28;20305;-58
2021/08/15 07:12:40;;;;;;;24.33;10.10;;;18.10;99.90;;;;;;5022780;28;20076;-53
2021/08/15 07:15:06;;;;;;;21.25;9.98;;;18.20;99.90;;;;;;5033763;28;20836;-54
2021/08/15 07:17:36;;;;;;;24.27;9.65;;;18.30;99.90;;;;;;5019062;28;20042;-56
2021/08/15 07:20:03;;;;;;;19.98;8.25;;;18.40;99.90;;;;;;5023758;28;20055;-56
2021/08/15 07:22:28;;;;;;;18.90;8.88;;;18.50;99.90;;;;;;5017101;28;20080;-57
2021/08/15 07:24:54;;;;;;;18.67;8.90;;;18.60;99.90;;;;;;5022528;28;20026;-57
2021/08/15 07:27:20;;;;;;;19.58;8.63;;;18.70;99.90;;;;;;5019442;28;20033;-56
2021/08/15 07:29:45;;;;;;;22.63;8.98;;;18.80;99.90;;;;;;5027942;28;20037;-57
2021/08/15 07:32:11;;;;;;;20.42;8.73;;;18.90;99.90;;;;;;5020723;28;20061;-57
2021/08/15 07:34:36;;;;;;;23.00;9.73;;;19.00;99.90;;;;;;5016405;28;20026;-58
2021/08/15 07:37:02;;;;;;;17.92;9.00;;;19.10;99.90;;;;;;5020327;28;20875;-57
2021/08/15 07:39:27;;;;;;;18.55;8.77;;;19.20;99.90;;;;;;5022213;28;20034;-57
2021/08/15 07:41:53;;;;;;;17.98;7.82;;;19.30;99.90;;;;;;5023424;28;20112;-54
2021/08/15 07:44:18;;;;;;;17.52;7.82;;;19.40;99.90;;;;;;5018275;28;20028;-57
2021/08/15 07:46:44;;;;;;;24.75;8.23;;;19.40;99.90;;;;;;5022358;28;20033;-55
2021/08/15 07:49:10;;;;;;;21.17;8.65;;;19.40;99.90;;;;;;5016536;28;20025;-56
2021/08/15 07:51:35;;;;;;;14.90;8.02;;;19.50;99.90;;;;;;5018240;28;20033;-54
2021/08/15 07:54:01;;;;;;;15.43;6.93;;;19.50;99.90;;;;;;5019395;28;20041;-58
2021/08/15 07:56:26;;;;;;;15.70;8.13;;;19.60;99.90;;;;;;5020996;28;20018;-56
2021/08/15 07:58:52;;;;;;;20.40;7.45;;;19.60;99.90;;;;;;5015111;28;20425;-59
2021/08/15 08:01:17;;;;;;;15.07;7.85;;;19.60;99.90;;;;;;5016373;28;20511;-58
2021/08/15 08:03:43;;;;;;;19.92;7.90;;;19.60;99.90;;;;;;5013725;28;20552;-59
2021/08/15 08:06:09;;;;;;;16.15;7.10;;;19.60;99.90;;;;;;5022387;28;20050;-61
2021/08/15 08:08:34;;;;;;;16.50;6.65;;;19.70;99.90;;;;;;5026582;28;20524;-57
2021/08/15 08:11:00;;;;;;;19.23;7.88;;;19.70;99.90;;;;;;5022090;28;20481;-57
2021/08/15 08:13:27;;;;;;;15.93;7.75;;;19.80;99.90;;;;;;5023343;28;20477;-59
2021/08/15 08:15:53;;;;;;;15.35;6.85;;;19.80;99.90;;;;;;5020787;28;20032;-59
2021/08/15 08:18:19;;;;;;;20.17;7.97;;;19.90;99.90;;;;;;5020531;28;20998;-61
2021/08/15 08:20:44;;;;;;;16.60;6.85;;;19.90;99.90;;;;;;5023453;28;20108;-58
2021/08/15 08:23:13;;;;;;;18.42;7.13;;;20.00;99.90;;;;;;5033208;28;20033;-58
2021/08/15 08:25:39;;;;;;;13.85;7.85;;;20.00;99.90;;;;;;5024178;28;20041;-61
2021/08/15 08:28:05;;;;;;;13.02;6.90;;;20.00;99.90;;;;;;5033256;28;20496;-59
2021/08/15 08:30:31;;;;;;;12.85;6.57;;;20.10;99.90;;;;;;5024048;28;20041;-58
2021/08/15 08:32:57;;;;;;;13.02;6.93;;;20.10;99.90;;;;;;5027643;28;20063;-58
2021/08/15 08:35:23;;;;;;;12.75;6.20;;;20.20;99.90;;;;;;5015251;28;20034;-60
2021/08/15 08:37:49;;;;;;;15.90;7.28;;;20.30;99.90;;;;;;5032752;28;20043;-62
2021/08/15 08:40:16;;;;;;;14.05;7.75;;;20.50;99.90;;;;;;5022053;28;20057;-59
2021/08/15 08:42:44;;;;;;;19.52;7.30;;;20.70;99.90;;;;;;5040468;28;20044;-59
2021/08/15 08:45:12;;;;;;;17.20;7.18;;;21.00;99.90;;;;;;5015870;28;20057;-60
2021/08/15 08:47:38;;;;;;;19.02;7.43;;;21.20;99.90;;;;;;5028214;28;20492;-60
2021/08/15 08:50:04;;;;;;;17.13;7.47;;;21.40;99.90;;;;;;5031572;28;20040;-60
2021/08/15 08:52:30;;;;;;;19.15;6.65;;;21.50;99.90;;;;;;5029186;28;20028;-59
2021/08/15 08:55:01;;;;;;;15.55;6.47;;;21.70;99.90;;;;;;5017623;28;20030;-61
2021/08/15 08:57:27;;;;;;;13.43;6.88;;;21.90;99.90;;;;;;5025812;28;20061;-61
2021/08/15 08:59:54;;;;;;;13.90;5.75;;;22.00;99.90;;;;;;5028059;28;20028;-60
2021/08/15 09:02:20;;;;;;;15.52;7.40;;;22.20;99.90;;;;;;5022941;28;20036;-59
2021/08/15 09:04:45;;;;;;;16.52;6.70;;;22.40;99.90;;;;;;5025834;28;20060;-59
2021/08/15 09:07:14;;;;;;;17.08;6.72;;;22.50;99.90;;;;;;5023229;28;20080;-62
2021/08/15 09:09:50;;;;;;;12.73;5.93;;;22.70;99.90;;;;;;5026752;28;20376;-62
2021/08/15 09:12:16;;;;;;;10.32;5.57;;;22.90;99.90;;;;;;5025048;28;20128;-60
2021/08/15 09:14:41;;;;;;;13.38;5.60;;;23.10;99.90;;;;;;5041405;28;20544;-60
2021/08/15 09:17:08;;;;;;;15.90;5.22;;;23.40;99.90;;;;;;5029240;28;20151;-60
2021/08/15 09:19:36;;;;;;;11.15;4.90;;;23.60;99.90;;;;;;5033242;28;20022;-61
2021/08/15 09:22:14;;;;;;;10.73;4.88;;;23.80;99.90;;;;;;5033517;28;20037;-60
2021/08/15 09:24:49;;;;;;;16.73;4.90;;;23.90;99.90;;;;;;5032203;28;20116;-60
2021/08/15 09:27:24;;;;;;;10.32;4.90;;;24.00;99.90;;;;;;5035858;28;20025;-62
2021/08/15 09:30:13;;;;;;;14.65;4.95;;;24.00;99.90;;;;;;5023057;28;20058;-62
2021/08/15 09:32:45;;;;;;;11.48;4.45;;;24.10;99.90;;;;;;5016691;28;20029;-62
2021/08/15 09:35:20;;;;;;;11.15;5.03;;;24.20;99.90;;;;;;5020987;28;20026;-61
2021/08/15 09:37:46;;;;;;;9.60;4.80;;;24.40;99.90;;;;;;5026590;28;20029;-59
2021/08/15 09:40:31;;;;;;;9.27;5.25;;;24.40;99.90;;;;;;5020966;28;20100;-59
2021/08/15 09:42:59;;;;;;;12.82;5.38;;;24.40;99.90;;;;;;5028497;28;20021;-62
2021/08/15 09:45:43;;;;;;;9.10;4.03;;;24.50;99.90;;;;;;5020216;28;20038;-61
2021/08/15 09:48:37;;;;;;;16.17;4.03;;;24.60;99.90;;;;;;5026991;28;20026;-62
2021/08/15 09:51:11;;;;;;;6.33;3.97;;;24.90;99.90;;;;;;5026637;28;20029;-61
2021/08/15 09:53:42;;;;;;;9.25;4.30;;;25.20;99.90;;;;;;5019459;28;20380;-62
2021/08/15 09:56:09;;;;;;;15.27;5.03;;;25.40;99.90;;;;;;5029024;28;20048;-60
2021/08/15 09:58:35;;;;;;;12.63;3.65;;;25.60;99.90;;;;;;5035384;28;20029;-61
2021/08/15 10:01:03;;;;;;;8.13;3.97;;;26.00;99.90;;;;;;5028705;28;20064;-61
2021/08/15 10:03:29;;;;;;;9.95;3.45;;;26.30;99.90;;;;;;5027693;28;20404;-61
2021/08/15 10:05:56;;;;;;;7.35;3.85;;;26.50;99.90;;;;;;5036149;28;20025;-63
2021/08/15 10:08:23;;;;;;;8.10;4.18;;;26.50;99.90;;;;;;5035739;28;20026;-62
2021/08/15 10:10:49;;;;;;;7.75;3.85;;;26.40;99.90;;;;;;5035721;28;20030;-61
2021/08/15 10:13:17;;;;;;;9.95;4.00;;;26.10;99.90;;;;;;5030834;28;20080;-62
2021/08/15 10:15:51;;;;;;;8.50;3.72;;;25.50;99.90;;;;;;5032999;28;20088;-63
2021/08/15 10:18:19;;;;;;;9.60;3.95;;;25.20;99.90;;;;;;5033336;28;20140;-63
2021/08/15 10:20:47;;;;;;;9.27;4.40;;;25.20;99.90;;;;;;5034921;28;20401;-61
2021/08/15 10:23:13;;;;;;;9.55;3.80;;;25.10;99.90;;;;;;5030725;28;20038;-60
2021/08/15 10:25:43;;;;;;;8.35;4.40;;;25.20;99.90;;;;;;5034582;28;20042;-61
2021/08/15 10:28:38;;;;;;;15.13;4.00;;;25.30;99.90;;;;;;5035717;28;20061;-62
2021/08/15 10:31:03;;;;;;;12.82;3.65;;;25.50;99.90;;;;;;5041031;28;20017;-61
2021/08/15 10:33:31;;;;;;;8.85;3.65;;;25.60;99.90;;;;;;5031609;28;20036;-61
2021/08/15 10:36:14;;;;;;;8.63;3.50;;;25.50;99.90;;;;;;5042452;28;20055;-62
2021/08/15 10:38:40;;;;;;;7.85;3.72;;;25.40;99.90;;;;;;5073998;22;20135;-57
2021/08/15 10:41:06;;;;;;;14.45;3.47;;;25.50;99.90;;;;;;5075688;28;20099;-56
2021/08/15 10:43:31;;;;;;;6.85;3.15;;;25.60;99.90;;;;;;5078460;28;20495;-58
2021/08/15 10:46:10;;;;;;;8.32;3.33;;;25.70;99.90;;;;;;5063556;28;20040;-59
2021/08/15 10:48:55;;;;;;;8.15;2.85;;;25.60;99.90;;;;;;5069207;28;20432;-56
2021/08/15 10:51:47;;;;;;;8.60;3.47;;;25.60;99.90;;;;;;5052174;28;20500;-57
2021/08/15 10:54:28;;;;;;;8.15;3.72;;;25.70;99.90;;;;;;5051420;28;20099;-57
2021/08/15 10:57:03;;;;;;;10.25;3.17;;;25.60;99.90;;;;;;5049439;28;20034;-58
2021/08/15 10:59:34;;;;;;;8.18;3.42;;;25.80;99.90;;;;;;5046633;28;20033;-57
2021/08/15 11:02:09;;;;;;;5.88;3.53;;;25.90;99.90;;;;;;5050964;28;20037;-54
2021/08/15 11:04:34;;;;;;;6.45;2.92;;;25.80;99.90;;;;;;5053953;28;20029;-57
2021/08/15 11:07:00;;;;;;;6.60;2.80;;;25.80;99.90;;;;;;5056696;28;20055;-57
2021/08/15 11:09:56;;;;;;;6.97;3.25;;;25.80;99.90;;;;;;5054006;28;20033;-56
2021/08/15 11:12:23;;;;;;;7.82;3.22;;;26.10;99.90;;;;;;5055800;28;20024;-54
2021/08/15 11:14:54;;;;;;;8.60;3.00;;;26.40;99.90;;;;;;5037212;28;20467;-58
2021/08/15 11:17:20;;;;;;;10.43;3.15;;;26.40;99.90;;;;;;5049794;28;20033;-57
2021/08/15 11:19:46;;;;;;;8.32;3.78;;;26.70;99.90;;;;;;5048160;28;20029;-57
2021/08/15 11:22:24;;;;;;;7.53;3.88;;;27.00;99.90;;;;;;5026826;28;20661;-56
2021/08/15 11:25:03;;;;;;;5.18;3.13;;;27.30;99.90;;;;;;5040634;28;20036;-58
2021/08/15 11:27:37;;;;;;;5.47;2.70;;;27.50;99.90;;;;;;5047849;28;20025;-58
2021/08/15 11:30:18;;;;;;;7.50;3.40;;;27.40;99.90;;;;;;5045758;28;20055;-58
2021/08/15 11:32:55;;;;;;;5.57;2.80;;;27.50;99.90;;;;;;5058923;28;20506;-58
2021/08/15 11:35:21;;;;;;;5.60;2.85;;;27.90;99.90;;;;;;5046420;28;20119;-56
2021/08/15 11:37:52;;;;;;;8.18;3.33;;;28.10;99.90;;;;;;5048534;28;20033;-58
2021/08/15 11:40:17;;;;;;;8.52;3.05;;;28.30;99.90;;;;;;5046522;28;20099;-60
2021/08/15 11:43:05;;;;;;;9.45;3.78;;;28.30;99.90;;;;;;5047863;28;20104;-59
2021/08/15 11:45:36;;;;;;;9.10;4.10;;;28.20;99.90;;;;;;5050534;28;20484;-58
2021/08/15 11:48:06;;;;;;;6.90;3.42;;;28.10;99.90;;;;;;5052729;28;20082;-59
2021/08/15 11:50:33;;;;;;;7.28;3.55;;;27.70;99.90;;;;;;5056461;28;20036;-60
2021/08/15 11:52:59;;;;;;;9.23;3.45;;;27.80;99.90;;;;;;5049953;28;20025;-58
2021/08/15 11:55:26;;;;;;;5.00;2.97;;;28.00;99.90;;;;;;5051544;28;20099;-61
2021/08/15 11:57:54;;;;;;;10.95;3.28;;;28.40;99.90;;;;;;5054192;28;20060;-59
2021/08/15 12:00:35;;;;;;;7.55;2.85;;;28.80;99.90;;;;;;5046430;28;20021;-59
2021/08/15 12:03:11;;;;;;;11.88;3.97;;;29.00;99.90;;;;;;5050855;28;20029;-55
2021/08/15 12:05:44;;;;;;;13.68;2.78;;;29.10;99.90;;;;;;5047910;28;20093;-59
2021/08/15 12:08:17;;;;;;;3.78;2.55;;;29.10;99.90;;;;;;5051196;28;20775;-58
2021/08/15 12:10:47;;;;;;;6.20;3.43;;;29.20;99.90;;;;;;5050620;28;20507;-60
2021/08/15 12:13:17;;;;;;;17.75;4.97;;;29.30;99.90;;;;;;5052440;28;20671;-59
2021/08/15 12:15:49;;;;;;;8.50;3.92;;;29.50;99.90;;;;;;5051415;28;20029;-58
2021/08/15 12:18:49;;;;;;;14.35;3.97;;;29.60;99.90;;;;;;5051562;28;20025;-58
2021/08/15 12:21:19;;;;;;;8.90;3.67;;;29.50;99.90;;;;;;5046737;28;20029;-59
2021/08/15 12:23:57;;;;;;;7.80;3.63;;;29.50;99.90;;;;;;5050749;28;20075;-57
2021/08/15 12:26:25;;;;;;;7.15;3.08;;;29.40;99.90;;;;;;5052018;28;20035;-57
2021/08/15 12:28:58;;;;;;;7.25;3.55;;;29.20;99.90;;;;;;5050274;28;20025;-59
2021/08/15 12:31:27;;;;;;;5.87;3.27;;;29.30;99.90;;;;;;5050482;28;20451;-59
2021/08/15 12:34:16;;;;;;;5.68;3.33;;;29.30;99.90;;;;;;5051756;28;20272;-57
2021/08/15 12:36:53;;;;;;;9.35;3.22;;;29.30;99.90;;;;;;5058157;28;20028;-59